createdAt,value
2022-08-26T00:06:34.246Z,16.72
2022-08-26T00:21:37.603Z,16.63
2022-08-26T00:36:41.068Z,16.59
2022-08-26T00:51:49.733Z,16.41
2022-08-26T01:06:54.869Z,16.17
2022-08-26T01:21:58.846Z,16.03
2022-08-26T01:37:15.467Z,15.93
2022-08-26T01:52:24.110Z,15.78
2022-08-26T02:07:32.085Z,15.71
2022-08-26T02:22:35.965Z,15.63
2022-08-26T02:37:38.672Z,15.49
2022-08-26T02:52:44.043Z,15.36
2022-08-26T03:07:47.087Z,15.39
2022-08-26T03:22:51.726Z,15.67
2022-08-26T03:37:54.187Z,16.05
2022-08-26T03:52:57.126Z,16.18
2022-08-26T04:07:59.226Z,16.48
2022-08-26T04:23:01.366Z,17.15
2022-08-26T04:38:03.627Z,18.17
2022-08-26T04:53:08.078Z,18.59
2022-08-26T05:08:12.066Z,19.11
2022-08-26T05:23:15.084Z,20.15
2022-08-26T05:38:19.887Z,20.51
2022-08-26T05:53:23.981Z,21.08
2022-08-26T06:08:28.125Z,21.85
2022-08-26T06:23:48.984Z,23.05
2022-08-26T06:38:52.535Z,24.11
2022-08-26T06:53:56.786Z,25.09
2022-08-26T07:09:05.160Z,25.96
2022-08-26T07:24:08.166Z,26.13
2022-08-26T07:39:10.307Z,26.37
2022-08-26T07:54:12.353Z,26.41
2022-08-26T08:09:16.234Z,26.84
2022-08-26T08:24:18.285Z,27.08
2022-08-26T08:39:20.587Z,27.11
2022-08-26T08:54:27.034Z,26.61
2022-08-26T09:09:38.308Z,27.47
2022-08-26T09:24:49.174Z,28.08
2022-08-26T09:39:51.554Z,28.51
2022-08-26T09:55:11.714Z,28.75
2022-08-26T10:10:28.269Z,28.65
2022-08-26T10:25:51.724Z,28.94
2022-08-26T10:41:10.540Z,29.45
2022-08-26T10:56:53.269Z,29.55
2022-08-26T11:11:58.828Z,30.07
2022-08-26T11:27:01.760Z,30.60
2022-08-26T11:42:29.804Z,30.31
2022-08-26T11:57:36.279Z,30.48
2022-08-26T12:12:39.819Z,31.37
2022-08-26T12:27:45.339Z,31.85
2022-08-26T12:42:52.323Z,32.14
2022-08-26T12:58:23.866Z,32.08
2022-08-26T13:13:27.201Z,31.57
2022-08-26T13:28:29.870Z,31.56
2022-08-26T13:43:33.079Z,31.49
2022-08-26T13:58:36.626Z,31.60
2022-08-26T14:13:39.789Z,31.37
2022-08-26T14:28:42.258Z,31.19
2022-08-26T14:43:55.031Z,31.18
2022-08-26T14:58:57.235Z,30.84
2022-08-26T15:14:00.407Z,30.60
2022-08-26T15:29:05.049Z,30.45
2022-08-26T15:44:08.928Z,30.23
2022-08-26T15:59:12.680Z,29.90
2022-08-26T16:14:16.577Z,29.55
2022-08-26T16:29:19.686Z,29.06
2022-08-26T16:44:23.124Z,28.46
2022-08-26T16:59:33.508Z,27.76
2022-08-26T17:14:36.080Z,26.86
2022-08-26T17:29:38.439Z,25.85
2022-08-26T17:44:40.897Z,24.83
2022-08-26T17:59:43.264Z,23.93
2022-08-26T18:14:47.298Z,23.24
2022-08-26T18:29:50.816Z,22.72
2022-08-26T18:44:53.444Z,22.18
2022-08-26T18:59:55.869Z,21.71
2022-08-26T19:14:58.311Z,21.20
2022-08-26T19:30:03.071Z,20.81
2022-08-26T19:45:24.275Z,20.55
2022-08-26T20:00:32.048Z,20.30
2022-08-26T20:15:34.566Z,20.09
2022-08-26T20:30:36.986Z,19.89
2022-08-26T20:45:39.394Z,19.65
2022-08-26T21:00:41.863Z,19.43
2022-08-26T21:15:44.309Z,19.28
2022-08-26T21:30:46.706Z,19.27
2022-08-26T21:45:49.980Z,19.82
2022-08-26T22:00:53.031Z,20.30
2022-08-26T22:15:57.982Z,20.57
2022-08-26T22:31:00.956Z,20.45
2022-08-26T22:46:03.545Z,20.24
2022-08-26T23:01:28.780Z,20.16
2022-08-26T23:16:37.843Z,19.95
2022-08-26T23:31:42.906Z,19.83
2022-08-26T23:46:45.403Z,19.61
